Terminal Aerodrome Forecast
Issued by NWS

Home | Current Version | Previous Version | Graphics & Text | Print | Product List | Glossary On
Versions: 1 2 3 4 5 6 7 8 9 10 11 12 13 14 15 16 17 18
570
FTUS43 KBIS 181123
TAFMOT
TAF
KMOT 181123Z 1812/1912 02011KT 2SM BR OVC002
     FM181400 02016G24KT 4SM -SHRA BR OVC006
     FM181700 01017G25KT P6SM VCSH OVC008
     FM182100 36018G26KT P6SM BKN020 OVC035
     FM190100 01015G23KT P6SM FEW035 BKN200
     FM190300 36009KT P6SM SCT220=

USA.gov is the U.S. government's official web portal to all federal, state and local government web resources and services.